createdAt,value
2023-05-13T00:02:31.692Z,9.96
2023-05-13T00:05:33.552Z,9.91
2023-05-13T00:08:37.055Z,9.97
2023-05-13T00:11:39.085Z,9.88
2023-05-13T00:14:41.035Z,9.80
2023-05-13T00:17:42.731Z,9.79
2023-05-13T00:20:44.457Z,9.71
2023-05-13T00:23:47.603Z,9.70
2023-05-13T00:26:49.374Z,9.65
2023-05-13T00:29:51.076Z,9.57
2023-05-13T00:32:53.166Z,9.60
2023-05-13T00:35:54.969Z,9.53
2023-05-13T00:38:58.213Z,9.60
2023-05-13T00:41:59.895Z,9.61
2023-05-13T00:45:01.594Z,9.64
2023-05-13T00:48:06.214Z,9.56
2023-05-13T00:51:08.004Z,9.54
2023-05-13T00:54:11.384Z,9.50
2023-05-13T00:57:13.514Z,9.42
2023-05-13T01:00:16.328Z,9.52
2023-05-13T01:03:24.164Z,9.57
2023-05-13T01:06:33.209Z,9.62
2023-05-13T01:09:45.265Z,9.64
2023-05-13T01:12:48.730Z,9.66
2023-05-13T01:15:56.613Z,9.64
2023-05-13T01:19:05.393Z,9.82
2023-05-13T01:22:08.662Z,9.86
2023-05-13T01:25:11.412Z,9.89
2023-05-13T01:28:13.691Z,9.93
2023-05-13T01:31:19.395Z,9.95
2023-05-13T01:34:22.723Z,9.99
2023-05-13T01:37:26.049Z,10.11
2023-05-13T01:40:32.703Z,10.17
2023-05-13T01:43:39.332Z,10.21
2023-05-13T01:46:43.449Z,10.10
2023-05-13T01:49:45.779Z,10.01
2023-05-13T01:52:48.952Z,9.90
2023-05-13T01:55:50.772Z,9.74
2023-05-13T01:58:52.513Z,9.62
2023-05-13T02:01:54.254Z,9.53
2023-05-13T02:04:56.003Z,9.45
2023-05-13T02:07:59.286Z,9.39
2023-05-13T02:11:01.119Z,9.32
2023-05-13T02:14:03.988Z,9.24
2023-05-13T02:17:05.715Z,9.23
2023-05-13T02:20:09.012Z,9.29
2023-05-13T02:23:12.405Z,9.26
2023-05-13T02:26:14.196Z,9.22
2023-05-13T02:29:15.869Z,9.35
2023-05-13T02:32:17.519Z,9.30
2023-05-13T02:35:19.442Z,9.27
2023-05-13T02:38:22.736Z,9.26
2023-05-13T02:41:24.687Z,9.25
2023-05-13T02:44:26.651Z,9.25
2023-05-13T02:47:28.606Z,9.23
2023-05-13T02:50:35.395Z,9.24
2023-05-13T02:53:39.230Z,9.31
2023-05-13T02:57:00.995Z,9.32
2023-05-13T03:00:04.599Z,9.40
2023-05-13T03:03:06.413Z,9.31
2023-05-13T03:06:08.421Z,9.31
2023-05-13T03:09:11.383Z,9.20
2023-05-13T03:12:13.388Z,9.02
2023-05-13T03:15:16.490Z,9.00
2023-05-13T03:18:18.783Z,8.97
2023-05-13T03:21:20.995Z,8.94
2023-05-13T03:24:24.386Z,8.98
2023-05-13T03:27:26.688Z,9.08
2023-05-13T03:30:28.686Z,9.18
2023-05-13T03:33:39.465Z,9.17
2023-05-13T03:36:42.462Z,9.04
2023-05-13T03:39:45.919Z,9.07
2023-05-13T03:42:47.936Z,9.16
2023-05-13T03:45:51.406Z,9.14
2023-05-13T03:48:55.975Z,9.07
2023-05-13T03:51:58.129Z,9.06
2023-05-13T03:55:01.358Z,9.00
2023-05-13T03:58:12.336Z,9.03
2023-05-13T04:01:13.929Z,9.03
2023-05-13T04:04:15.786Z,9.13
2023-05-13T04:07:17.580Z,9.08
2023-05-13T04:10:20.991Z,9.10
2023-05-13T04:13:23.012Z,9.24
2023-05-13T04:16:25.626Z,9.20
2023-05-13T04:19:27.460Z,9.24
2023-05-13T04:22:29.141Z,9.31
2023-05-13T04:25:32.195Z,9.43
2023-05-13T04:28:34.825Z,9.58
2023-05-13T04:31:37.393Z,9.68
2023-05-13T04:34:39.221Z,9.74
2023-05-13T04:37:41.085Z,9.69
2023-05-13T04:40:48.165Z,9.75
2023-05-13T04:43:55.435Z,9.80
2023-05-13T04:46:57.157Z,9.88
2023-05-13T04:49:58.999Z,10.04
2023-05-13T04:53:01.515Z,10.10
2023-05-13T04:56:06.101Z,10.31
2023-05-13T04:59:08.696Z,10.29
2023-05-13T05:02:10.651Z,10.26
2023-05-13T05:05:12.937Z,10.18
2023-05-13T05:08:14.643Z,10.04
2023-05-13T05:11:17.887Z,9.92
2023-05-13T05:14:20.215Z,9.93
2023-05-13T05:17:23.937Z,9.87
2023-05-13T05:20:25.771Z,9.78
2023-05-13T05:23:30.524Z,9.73
2023-05-13T05:26:33.701Z,9.75
2023-05-13T05:29:36.581Z,9.72
2023-05-13T05:32:38.643Z,9.82
2023-05-13T05:35:41.751Z,9.79
2023-05-13T05:38:47.307Z,9.89
2023-05-13T05:41:50.844Z,9.94
2023-05-13T05:44:53.199Z,10.00
2023-05-13T05:47:55.367Z,10.03
2023-05-13T05:50:57.511Z,9.99
2023-05-13T05:54:03.663Z,10.15
2023-05-13T05:57:07.394Z,10.27
2023-05-13T06:00:10.479Z,10.41
2023-05-13T06:03:16.778Z,10.57
2023-05-13T06:06:18.876Z,10.64
2023-05-13T06:09:20.529Z,10.75
2023-05-13T06:12:25.869Z,11.02
2023-05-13T06:15:27.645Z,11.38
2023-05-13T06:18:29.412Z,11.78
2023-05-13T06:21:32.094Z,12.18
2023-05-13T06:24:33.869Z,12.39
2023-05-13T06:27:37.333Z,13.25
2023-05-13T06:30:39.156Z,13.45
2023-05-13T06:33:40.974Z,13.67
2023-05-13T06:36:43.427Z,13.62
2023-05-13T06:39:45.595Z,13.80
2023-05-13T06:42:49.128Z,13.91
2023-05-13T06:46:03.534Z,14.16
2023-05-13T06:49:05.385Z,14.38
2023-05-13T06:52:08.702Z,14.48
2023-05-13T06:55:11.125Z,14.58
2023-05-13T06:58:14.175Z,14.63
2023-05-13T07:01:16.766Z,14.89
2023-05-13T07:04:18.648Z,15.00
2023-05-13T07:07:20.577Z,15.29
2023-05-13T07:10:22.805Z,15.45
2023-05-13T07:13:26.406Z,15.29
2023-05-13T07:16:28.100Z,15.35
2023-05-13T07:19:29.901Z,15.43
2023-05-13T07:22:31.718Z,15.39
2023-05-13T07:25:33.722Z,15.38
2023-05-13T07:28:36.858Z,15.14
2023-05-13T07:31:38.584Z,15.25
2023-05-13T07:34:40.334Z,15.42
2023-05-13T07:37:42.042Z,15.31
2023-05-13T07:40:44.039Z,15.10
2023-05-13T07:43:47.285Z,15.17
2023-05-13T07:46:49.412Z,15.50
2023-05-13T07:49:51.125Z,15.66
2023-05-13T07:52:52.911Z,15.69
2023-05-13T07:55:54.661Z,15.42
2023-05-13T07:58:57.964Z,15.10
2023-05-13T08:01:59.806Z,15.19
2023-05-13T08:05:01.659Z,15.43
2023-05-13T08:08:04.454Z,15.74
2023-05-13T08:11:06.151Z,16.43
2023-05-13T08:14:09.366Z,16.77
2023-05-13T08:17:11.103Z,17.13
2023-05-13T08:20:14.910Z,17.04
2023-05-13T08:23:17.087Z,16.67
2023-05-13T08:26:18.818Z,16.58
2023-05-13T08:29:21.984Z,16.58
2023-05-13T08:32:23.846Z,16.79
2023-05-13T08:35:26.128Z,17.04
2023-05-13T08:38:28.017Z,16.87
2023-05-13T08:41:31.765Z,17.02
2023-05-13T08:44:39.457Z,17.09
2023-05-13T08:47:51.088Z,16.94
2023-05-13T08:50:52.985Z,16.93
2023-05-13T08:53:55.598Z,17.11
2023-05-13T08:56:57.367Z,17.02
2023-05-13T09:00:00.646Z,17.10
2023-05-13T09:03:02.819Z,16.97
2023-05-13T09:06:05.247Z,17.15
2023-05-13T09:09:07.133Z,17.36
2023-05-13T09:12:09.141Z,17.57
2023-05-13T09:15:14.440Z,17.57
2023-05-13T09:18:18.709Z,17.61
2023-05-13T09:21:25.938Z,17.92
2023-05-13T09:24:27.929Z,17.86
2023-05-13T09:27:38.202Z,17.71
2023-05-13T09:30:46.466Z,17.89
2023-05-13T09:33:52.392Z,18.15
2023-05-13T09:37:00.449Z,18.19
2023-05-13T09:40:03.794Z,18.36
2023-05-13T09:43:07.392Z,18.52
2023-05-13T09:46:10.680Z,18.66
2023-05-13T09:49:12.880Z,18.79
2023-05-13T09:52:17.085Z,18.88
2023-05-13T09:55:19.043Z,18.91
2023-05-13T09:58:22.019Z,18.76
2023-05-13T10:01:26.907Z,19.22
2023-05-13T10:04:29.147Z,19.46
2023-05-13T10:07:32.800Z,19.32
2023-05-13T10:10:37.220Z,19.88
2023-05-13T10:13:39.434Z,19.93
2023-05-13T10:16:43.178Z,19.49
2023-05-13T10:19:45.106Z,19.27
2023-05-13T10:22:47.064Z,19.56
2023-05-13T10:25:50.067Z,19.14
2023-05-13T10:28:51.711Z,19.34
2023-05-13T10:31:56.350Z,19.31
2023-05-13T10:35:04.381Z,19.73
2023-05-13T10:38:09.302Z,20.20
2023-05-13T10:41:24.790Z,20.35
2023-05-13T10:44:26.586Z,21.17
2023-05-13T10:47:31.879Z,21.15
2023-05-13T10:50:37.827Z,21.49
2023-05-13T10:53:44.841Z,21.63
2023-05-13T10:56:47.223Z,20.88
2023-05-13T11:00:16.888Z,21.19
2023-05-13T11:03:30.280Z,21.21
2023-05-13T11:06:35.228Z,21.13
2023-05-13T11:09:38.171Z,21.67
2023-05-13T11:12:40.017Z,21.18
2023-05-13T11:15:45.260Z,20.90
2023-05-13T11:18:49.214Z,20.83
2023-05-13T11:21:55.423Z,21.07
2023-05-13T11:25:05.137Z,21.62
2023-05-13T11:28:06.787Z,21.40
2023-05-13T11:31:17.112Z,21.48
2023-05-13T11:34:20.556Z,21.44
2023-05-13T11:37:23.285Z,21.50
2023-05-13T11:40:26.210Z,21.08
2023-05-13T11:43:27.932Z,21.14
2023-05-13T11:46:30.148Z,21.14
2023-05-13T11:49:39.016Z,20.97
2023-05-13T11:52:41.523Z,21.28
2023-05-13T11:55:43.331Z,21.48
2023-05-13T11:58:45.105Z,20.92
2023-05-13T12:01:58.067Z,21.36
2023-05-13T12:05:02.244Z,21.33
2023-05-13T12:08:04.121Z,21.55
2023-05-13T12:11:07.271Z,21.21
2023-05-13T12:14:09.426Z,21.39
2023-05-13T12:17:11.359Z,21.58
2023-05-13T12:20:16.320Z,20.72
2023-05-13T12:23:18.073Z,20.52
2023-05-13T12:26:20.095Z,20.60
2023-05-13T12:29:21.857Z,20.93
2023-05-13T12:32:24.779Z,21.90
2023-05-13T12:35:28.191Z,21.85
2023-05-13T12:38:29.957Z,21.92
2023-05-13T12:41:34.752Z,21.81
2023-05-13T12:44:36.519Z,21.84
2023-05-13T12:47:50.848Z,21.28
2023-05-13T12:50:54.258Z,20.70
2023-05-13T12:53:58.157Z,18.76
2023-05-13T12:56:59.856Z,17.88
2023-05-13T13:00:01.665Z,17.63
2023-05-13T13:03:03.315Z,17.92
2023-05-13T13:06:06.730Z,18.26
2023-05-13T13:09:08.545Z,18.76
2023-05-13T13:12:10.236Z,18.91
2023-05-13T13:15:12.298Z,18.61
2023-05-13T13:18:14.320Z,17.03
2023-05-13T13:21:17.356Z,16.74
2023-05-13T13:24:19.103Z,16.81
2023-05-13T13:27:21.072Z,16.86
2023-05-13T13:30:22.970Z,16.43
2023-05-13T13:33:25.165Z,15.93
2023-05-13T13:36:28.545Z,15.96
2023-05-13T13:39:30.404Z,15.99
2023-05-13T13:42:43.517Z,16.13
2023-05-13T13:45:46.729Z,16.16
2023-05-13T13:48:48.430Z,16.25
2023-05-13T13:51:51.871Z,16.55
2023-05-13T13:54:53.537Z,16.61
2023-05-13T13:57:55.291Z,16.93
2023-05-13T14:00:57.001Z,17.49
2023-05-13T14:04:10.949Z,18.34
2023-05-13T14:07:14.118Z,18.98
2023-05-13T14:10:15.927Z,19.48
2023-05-13T14:13:17.552Z,19.79
2023-05-13T14:16:19.262Z,19.69
2023-05-13T14:19:20.987Z,18.91
2023-05-13T14:22:24.624Z,18.60
2023-05-13T14:25:26.397Z,18.57
2023-05-13T14:28:28.019Z,18.51
2023-05-13T14:31:31.067Z,18.28
2023-05-13T14:34:34.143Z,18.09
2023-05-13T14:37:37.670Z,18.29
2023-05-13T14:40:39.470Z,18.61
2023-05-13T14:43:41.216Z,18.81
2023-05-13T14:46:42.994Z,18.81
2023-05-13T14:49:44.850Z,19.30
2023-05-13T14:52:47.998Z,19.65
2023-05-13T14:55:51.577Z,21.38
2023-05-13T14:58:53.619Z,22.25
2023-05-13T15:01:55.607Z,21.58
2023-05-13T15:04:57.450Z,21.90
2023-05-13T15:08:01.031Z,22.28
2023-05-13T15:11:02.738Z,22.46
2023-05-13T15:14:04.586Z,23.08
2023-05-13T15:17:10.677Z,23.52
2023-05-13T15:20:12.850Z,23.20
2023-05-13T15:23:15.861Z,23.02
2023-05-13T15:26:17.798Z,23.07
2023-05-13T15:33:17.724Z,22.34
2023-05-13T15:36:19.541Z,22.22
2023-05-13T15:39:23.139Z,21.83
2023-05-13T15:42:25.465Z,21.09
2023-05-13T15:45:27.285Z,20.83
2023-05-13T15:48:29.113Z,20.57
2023-05-13T15:51:31.665Z,19.95
2023-05-13T15:54:34.985Z,19.97
2023-05-13T15:57:36.729Z,19.54
2023-05-13T16:00:38.476Z,19.61
2023-05-13T16:03:40.489Z,19.53
2023-05-13T16:06:42.373Z,18.58
2023-05-13T16:09:45.595Z,18.69
2023-05-13T16:12:47.279Z,19.37
2023-05-13T16:15:49.112Z,21.13
2023-05-13T16:18:50.925Z,22.28
2023-05-13T16:21:52.850Z,22.05
2023-05-13T16:24:58.740Z,21.16
2023-05-13T16:28:00.707Z,20.52
2023-05-13T16:31:02.467Z,19.80
2023-05-13T16:34:04.362Z,18.78
2023-05-13T16:39:48.640Z,17.74
2023-05-13T16:42:50.445Z,17.60
2023-05-13T16:45:52.297Z,17.55
2023-05-13T16:48:54.130Z,17.76
2023-05-13T16:51:56.042Z,18.13
2023-05-13T16:54:59.380Z,18.49
2023-05-13T16:58:01.604Z,18.43
2023-05-13T17:01:03.438Z,18.80
2023-05-13T17:04:05.198Z,19.51
2023-05-13T17:07:07.230Z,20.11
2023-05-13T17:10:10.951Z,21.12
2023-05-13T17:13:13.526Z,21.46
2023-05-13T17:16:15.694Z,21.75
2023-05-13T17:19:17.780Z,21.27
2023-05-13T17:22:19.571Z,21.54
2023-05-13T17:25:22.598Z,21.84
2023-05-13T17:28:24.678Z,20.98
2023-05-13T17:31:26.596Z,20.34
2023-05-13T17:34:28.364Z,19.32
2023-05-13T17:37:30.181Z,18.53
2023-05-13T17:40:33.768Z,18.25
2023-05-13T17:43:36.266Z,17.93
2023-05-13T17:46:38.109Z,18.15
2023-05-13T17:49:39.813Z,17.86
2023-05-13T17:52:41.594Z,17.71
2023-05-13T17:55:44.769Z,17.66
2023-05-13T17:58:46.448Z,17.53
2023-05-13T18:01:48.189Z,17.26
2023-05-13T18:04:49.898Z,17.11
2023-05-13T18:07:51.599Z,16.87
2023-05-13T18:10:54.602Z,16.56
2023-05-13T18:13:56.337Z,16.44
2023-05-13T18:16:58.264Z,16.33
2023-05-13T18:19:59.935Z,16.32
2023-05-13T18:23:01.699Z,16.34
2023-05-13T18:26:04.943Z,16.25
2023-05-13T18:29:06.898Z,16.11
2023-05-13T18:32:08.607Z,16.06
2023-05-13T18:35:10.575Z,16.14
2023-05-13T18:38:15.356Z,15.99
2023-05-13T18:41:18.475Z,16.01
2023-05-13T18:44:20.211Z,15.98
2023-05-13T18:47:21.959Z,15.96
2023-05-13T18:50:24.879Z,15.82
2023-05-13T18:53:26.697Z,15.63
2023-05-13T18:56:30.908Z,15.49
2023-05-13T18:59:32.805Z,15.28
2023-05-13T19:02:35.233Z,15.23
2023-05-13T19:05:37.274Z,15.14
2023-05-13T19:08:38.889Z,14.96
2023-05-13T19:11:42.242Z,14.89
2023-05-13T19:14:44.099Z,14.79
2023-05-13T19:17:46.262Z,14.82
2023-05-13T19:20:48.021Z,14.74
2023-05-13T19:23:50.145Z,14.69
2023-05-13T19:26:53.530Z,14.64
2023-05-13T19:29:55.185Z,14.61
2023-05-13T19:32:57.132Z,14.63
2023-05-13T19:35:58.896Z,14.66
2023-05-13T19:39:00.679Z,14.61
2023-05-13T19:42:03.956Z,14.60
2023-05-13T19:45:06.614Z,14.63
2023-05-13T19:48:08.528Z,14.65
2023-05-13T19:51:10.482Z,14.59
2023-05-13T19:54:13.488Z,14.53
2023-05-13T19:57:16.715Z,14.57
2023-05-13T20:00:18.822Z,14.58
2023-05-13T20:03:20.813Z,14.67
2023-05-13T20:06:22.689Z,14.59
2023-05-13T20:09:25.475Z,14.60
2023-05-13T20:12:28.480Z,14.57
2023-05-13T20:15:30.449Z,14.47
2023-05-13T20:18:32.364Z,14.45
2023-05-13T20:21:34.511Z,14.46
2023-05-13T20:24:36.409Z,14.40
2023-05-13T20:27:39.463Z,14.37
2023-05-13T20:30:42.183Z,14.33
2023-05-13T20:33:43.927Z,14.45
2023-05-13T20:36:45.791Z,14.38
2023-05-13T20:39:47.682Z,14.34
2023-05-13T20:42:50.741Z,14.27
2023-05-13T20:45:52.433Z,14.27
2023-05-13T20:48:54.362Z,14.16
2023-05-13T20:52:01.484Z,14.10
2023-05-13T20:55:03.405Z,14.00
2023-05-13T20:58:06.395Z,13.83
2023-05-13T21:01:08.083Z,13.67
2023-05-13T21:04:10.635Z,13.61
2023-05-13T21:07:12.593Z,13.60
2023-05-13T21:10:14.269Z,13.50
2023-05-13T21:13:17.397Z,13.37
2023-05-13T21:16:19.075Z,13.27
2023-05-13T21:19:21.413Z,13.16
2023-05-13T21:22:23.335Z,13.06
2023-05-13T21:25:25.099Z,13.05
2023-05-13T21:28:28.813Z,13.05
2023-05-13T21:31:30.669Z,13.08
2023-05-13T21:34:32.414Z,12.98
2023-05-13T21:37:34.264Z,12.87
2023-05-13T21:40:36.189Z,12.72
2023-05-13T21:43:39.181Z,12.62
2023-05-13T21:46:40.847Z,12.51
2023-05-13T21:49:42.631Z,12.50
2023-05-13T21:52:44.446Z,12.36
2023-05-13T21:55:46.112Z,12.27
2023-05-13T21:58:50.579Z,12.27
2023-05-13T22:01:52.303Z,12.24
2023-05-13T22:04:54.212Z,12.30
2023-05-13T22:07:56.049Z,12.32
2023-05-13T22:10:57.885Z,12.48
2023-05-13T22:14:01.305Z,12.55
2023-05-13T22:17:09.768Z,12.50
2023-05-13T22:20:12.650Z,12.29
2023-05-13T22:23:14.284Z,12.03
2023-05-13T22:26:16.059Z,11.98
2023-05-13T22:29:19.274Z,11.90
2023-05-13T22:32:20.945Z,11.81
2023-05-13T22:35:22.868Z,11.82
2023-05-13T22:38:24.544Z,11.97
2023-05-13T22:41:26.746Z,11.96
2023-05-13T22:44:29.924Z,12.07
2023-05-13T22:47:31.941Z,12.18
2023-05-13T22:50:33.656Z,12.20
2023-05-13T22:53:35.341Z,12.29
2023-05-13T22:56:37.166Z,12.35
2023-05-13T22:59:40.269Z,12.40
2023-05-13T23:02:42.040Z,12.38
2023-05-13T23:05:44.210Z,12.43
2023-05-13T23:08:45.867Z,12.33
2023-05-13T23:11:47.839Z,12.36
2023-05-13T23:14:50.981Z,12.31
2023-05-13T23:17:52.772Z,12.40
2023-05-13T23:20:55.930Z,12.37
2023-05-13T23:23:57.959Z,12.47
2023-05-13T23:26:59.595Z,12.59
2023-05-13T23:30:03.075Z,12.61
2023-05-13T23:33:04.880Z,12.60
2023-05-13T23:36:26.444Z,12.68
2023-05-13T23:39:28.242Z,12.74
2023-05-13T23:42:29.827Z,12.71
2023-05-13T23:45:32.964Z,12.80
2023-05-13T23:48:34.797Z,12.77
2023-05-13T23:51:36.551Z,13.05
2023-05-13T23:54:38.152Z,13.16
2023-05-13T23:57:39.963Z,13.05
